sensor_id;sensor_type;location;lat;lon;timestamp;temperature;humidity
9658;DHT22;4867;48.112;11.622;2022-10-04T00:01:45;6.80;99.90
9658;DHT22;4867;48.112;11.622;2022-10-04T00:06:54;6.80;99.90
9658;DHT22;4867;48.112;11.622;2022-10-04T00:09:27;6.90;99.90
9658;DHT22;4867;48.112;11.622;2022-10-04T00:11:58;6.90;99.90
9658;DHT22;4867;48.112;11.622;2022-10-04T00:14:30;7.00;99.90
9658;DHT22;4867;48.112;11.622;2022-10-04T00:16:59;7.00;99.90
9658;DHT22;4867;48.112;11.622;2022-10-04T00:19:48;7.00;99.90
9658;DHT22;4867;48.112;11.622;2022-10-04T00:22:23;7.00;99.90
9658;DHT22;4867;48.112;11.622;2022-10-04T00:27:27;7.10;99.90
9658;DHT22;4867;48.112;11.622;2022-10-04T00:41:00;7.00;99.90
9658;DHT22;4867;48.112;11.622;2022-10-04T00:43:38;6.90;99.90
9658;DHT22;4867;48.112;11.622;2022-10-04T00:46:11;6.80;99.90
9658;DHT22;4867;48.112;11.622;2022-10-04T00:48:49;6.90;99.90
9658;DHT22;4867;48.112;11.622;2022-10-04T00:51:29;6.90;99.90
9658;DHT22;4867;48.112;11.622;2022-10-04T00:56:33;6.80;99.90
9658;DHT22;4867;48.112;11.622;2022-10-04T00:59:23;6.80;99.90
9658;DHT22;4867;48.112;11.622;2022-10-04T01:01:58;6.70;99.90
9658;DHT22;4867;48.112;11.622;2022-10-04T01:04:32;6.70;99.90
9658;DHT22;4867;48.112;11.622;2022-10-04T01:07:02;6.70;99.90
9658;DHT22;4867;48.112;11.622;2022-10-04T01:09:40;6.70;99.90
9658;DHT22;4867;48.112;11.622;2022-10-04T01:15:09;6.70;99.90
9658;DHT22;4867;48.112;11.622;2022-10-04T01:17:38;6.60;99.90
9658;DHT22;4867;48.112;11.622;2022-10-04T01:20:32;6.60;99.90
9658;DHT22;4867;48.112;11.622;2022-10-04T01:23:02;6.50;99.90
9658;DHT22;4867;48.112;11.622;2022-10-04T01:25:47;6.50;99.90
9658;DHT22;4867;48.112;11.622;2022-10-04T01:28:15;6.40;99.90
9658;DHT22;4867;48.112;11.622;2022-10-04T01:30:43;6.40;99.90
9658;DHT22;4867;48.112;11.622;2022-10-04T01:33:11;6.40;99.90
9658;DHT22;4867;48.112;11.622;2022-10-04T01:35:39;6.30;99.90
9658;DHT22;4867;48.112;11.622;2022-10-04T01:38:06;6.30;99.90
9658;DHT22;4867;48.112;11.622;2022-10-04T01:40:35;6.30;99.90
9658;DHT22;4867;48.112;11.622;2022-10-04T01:43:07;6.30;99.90
9658;DHT22;4867;48.112;11.622;2022-10-04T01:45:46;6.30;99.90
9658;DHT22;4867;48.112;11.622;2022-10-04T01:48:17;6.20;99.90
9658;DHT22;4867;48.112;11.622;2022-10-04T01:50:55;6.20;99.90
9658;DHT22;4867;48.112;11.622;2022-10-04T01:53:31;6.20;99.90
9658;DHT22;4867;48.112;11.622;2022-10-04T01:56:10;6.20;99.90
9658;DHT22;4867;48.112;11.622;2022-10-04T01:58:43;6.10;99.90
9658;DHT22;4867;48.112;11.622;2022-10-04T02:03:53;6.00;99.90
9658;DHT22;4867;48.112;11.622;2022-10-04T02:06:24;6.00;99.90
9658;DHT22;4867;48.112;11.622;2022-10-04T02:08:52;6.00;99.90
9658;DHT22;4867;48.112;11.622;2022-10-04T02:11:26;6.00;99.90
9658;DHT22;4867;48.112;11.622;2022-10-04T02:13:56;6.00;99.90
9658;DHT22;4867;48.112;11.622;2022-10-04T02:16:24;6.00;99.90
9658;DHT22;4867;48.112;11.622;2022-10-04T02:18:53;6.00;99.90
9658;DHT22;4867;48.112;11.622;2022-10-04T02:21:21;6.00;99.90
9658;DHT22;4867;48.112;11.622;2022-10-04T02:23:51;5.90;99.90
9658;DHT22;4867;48.112;11.622;2022-10-04T02:26:19;5.90;99.90
9658;DHT22;4867;48.112;11.622;2022-10-04T02:28:47;5.90;99.90
9658;DHT22;4867;48.112;11.622;2022-10-04T02:31:20;5.80;99.90
9658;DHT22;4867;48.112;11.622;2022-10-04T02:34:07;5.80;99.90
9658;DHT22;4867;48.112;11.622;2022-10-04T02:36:35;5.80;99.90
9658;DHT22;4867;48.112;11.622;2022-10-04T02:39:14;5.80;99.90
9658;DHT22;4867;48.112;11.622;2022-10-04T02:41:46;5.80;99.90
9658;DHT22;4867;48.112;11.622;2022-10-04T02:49:34;5.80;99.90
9658;DHT22;4867;48.112;11.622;2022-10-04T02:55:06;5.70;99.90
9658;DHT22;4867;48.112;11.622;2022-10-04T02:57:40;5.70;99.90
9658;DHT22;4867;48.112;11.622;2022-10-04T03:00:20;5.70;99.90
9658;DHT22;4867;48.112;11.622;2022-10-04T03:08:27;5.60;99.90
9658;DHT22;4867;48.112;11.622;2022-10-04T03:10:57;5.50;99.90
9658;DHT22;4867;48.112;11.622;2022-10-04T03:13:26;5.50;99.90
9658;DHT22;4867;48.112;11.622;2022-10-04T03:15:54;5.50;99.90
9658;DHT22;4867;48.112;11.622;2022-10-04T03:18:22;5.50;99.90
9658;DHT22;4867;48.112;11.622;2022-10-04T03:20:49;5.50;99.90
9658;DHT22;4867;48.112;11.622;2022-10-04T03:23:18;5.50;99.90
9658;DHT22;4867;48.112;11.622;2022-10-04T03:28:52;5.50;99.90
9658;DHT22;4867;48.112;11.622;2022-10-04T03:31:19;5.40;99.90
9658;DHT22;4867;48.112;11.622;2022-10-04T03:33:47;5.40;99.90
9658;DHT22;4867;48.112;11.622;2022-10-04T03:36:16;5.40;99.90
9658;DHT22;4867;48.112;11.622;2022-10-04T03:38:46;5.40;99.90
9658;DHT22;4867;48.112;11.622;2022-10-04T03:41:14;5.40;99.90
9658;DHT22;4867;48.112;11.622;2022-10-04T03:43:45;5.40;99.90
9658;DHT22;4867;48.112;11.622;2022-10-04T03:46:13;5.40;99.90
9658;DHT22;4867;48.112;11.622;2022-10-04T03:48:44;5.40;99.90
9658;DHT22;4867;48.112;11.622;2022-10-04T03:51:19;5.30;99.90
9658;DHT22;4867;48.112;11.622;2022-10-04T03:53:53;5.30;99.90
9658;DHT22;4867;48.112;11.622;2022-10-04T03:56:25;5.30;99.90
9658;DHT22;4867;48.112;11.622;2022-10-04T03:58:54;5.30;99.90
9658;DHT22;4867;48.112;11.622;2022-10-04T04:07:02;5.20;99.90
9658;DHT22;4867;48.112;11.622;2022-10-04T04:09:46;5.20;99.90
9658;DHT22;4867;48.112;11.622;2022-10-04T04:12:21;5.20;99.90
9658;DHT22;4867;48.112;11.622;2022-10-04T04:14:51;5.20;99.90
9658;DHT22;4867;48.112;11.622;2022-10-04T04:19:56;5.20;99.90
9658;DHT22;4867;48.112;11.622;2022-10-04T04:22:27;5.10;99.90
9658;DHT22;4867;48.112;11.622;2022-10-04T04:24:59;5.10;99.90
9658;DHT22;4867;48.112;11.622;2022-10-04T04:27:28;5.20;99.90
9658;DHT22;4867;48.112;11.622;2022-10-04T04:29:59;5.10;99.90
9658;DHT22;4867;48.112;11.622;2022-10-04T04:32:36;5.10;99.90
9658;DHT22;4867;48.112;11.622;2022-10-04T04:35:16;5.10;99.90
9658;DHT22;4867;48.112;11.622;2022-10-04T04:38:44;5.10;99.90
9658;DHT22;4867;48.112;11.622;2022-10-04T04:40:52;5.20;99.90
9658;DHT22;4867;48.112;11.622;2022-10-04T04:43:25;5.20;99.90
9658;DHT22;4867;48.112;11.622;2022-10-04T04:45:54;5.20;99.90
9658;DHT22;4867;48.112;11.622;2022-10-04T04:48:46;5.20;99.90
9658;DHT22;4867;48.112;11.622;2022-10-04T04:51:21;5.20;99.90
9658;DHT22;4867;48.112;11.622;2022-10-04T04:53:51;5.10;99.90
9658;DHT22;4867;48.112;11.622;2022-10-04T04:56:21;5.10;99.90
9658;DHT22;4867;48.112;11.622;2022-10-04T04:58:50;5.10;99.90
9658;DHT22;4867;48.112;11.622;2022-10-04T05:01:32;5.10;99.90
9658;DHT22;4867;48.112;11.622;2022-10-04T05:06:31;5.10;99.90
9658;DHT22;4867;48.112;11.622;2022-10-04T05:09:00;5.10;99.90
9658;DHT22;4867;48.112;11.622;2022-10-04T05:11:30;5.10;99.90
9658;DHT22;4867;48.112;11.622;2022-10-04T05:16:44;5.10;99.90
9658;DHT22;4867;48.112;11.622;2022-10-04T05:19:31;5.10;99.90
9658;DHT22;4867;48.112;11.622;2022-10-04T05:22:02;5.10;99.90
9658;DHT22;4867;48.112;11.622;2022-10-04T05:24:49;5.10;99.90
9658;DHT22;4867;48.112;11.622;2022-10-04T05:27:29;5.10;99.90
9658;DHT22;4867;48.112;11.622;2022-10-04T05:46:20;5.30;99.90
9658;DHT22;4867;48.112;11.622;2022-10-04T05:48:57;5.40;99.90
9658;DHT22;4867;48.112;11.622;2022-10-04T05:51:31;5.40;99.90
9658;DHT22;4867;48.112;11.622;2022-10-04T05:54:01;5.50;99.90
9658;DHT22;4867;48.112;11.622;2022-10-04T05:59:50;5.80;99.90
9658;DHT22;4867;48.112;11.622;2022-10-04T06:05:20;6.10;99.90
9658;DHT22;4867;48.112;11.622;2022-10-04T06:11:03;6.30;99.90
9658;DHT22;4867;48.112;11.622;2022-10-04T06:16:39;6.60;99.90
9658;DHT22;4867;48.112;11.622;2022-10-04T06:19:11;6.80;99.90
9658;DHT22;4867;48.112;11.622;2022-10-04T06:24:25;7.00;99.90
9658;DHT22;4867;48.112;11.622;2022-10-04T06:27:01;7.20;99.90
9658;DHT22;4867;48.112;11.622;2022-10-04T06:29:41;7.30;99.90
9658;DHT22;4867;48.112;11.622;2022-10-04T06:32:49;7.40;99.90
9658;DHT22;4867;48.112;11.622;2022-10-04T06:38:10;7.50;99.90
9658;DHT22;4867;48.112;11.622;2022-10-04T06:46:37;7.80;99.90
9658;DHT22;4867;48.112;11.622;2022-10-04T06:49:31;7.80;99.90
9658;DHT22;4867;48.112;11.622;2022-10-04T07:00:56;8.20;99.90
9658;DHT22;4867;48.112;11.622;2022-10-04T07:03:36;8.30;99.90
9658;DHT22;4867;48.112;11.622;2022-10-04T07:06:06;8.40;99.90
9658;DHT22;4867;48.112;11.622;2022-10-04T07:08:47;8.60;99.90
9658;DHT22;4867;48.112;11.622;2022-10-04T07:14:17;8.80;99.90
9658;DHT22;4867;48.112;11.622;2022-10-04T07:16:49;9.00;99.90
9658;DHT22;4867;48.112;11.622;2022-10-04T07:19:37;9.20;99.90
9658;DHT22;4867;48.112;11.622;2022-10-04T07:27:48;9.60;99.90
9658;DHT22;4867;48.112;11.622;2022-10-04T07:30:42;9.60;99.90
9658;DHT22;4867;48.112;11.622;2022-10-04T07:33:18;9.90;99.90
9658;DHT22;4867;48.112;11.622;2022-10-04T07:35:52;10.00;99.90
9658;DHT22;4867;48.112;11.622;2022-10-04T07:38:26;10.10;99.90
9658;DHT22;4867;48.112;11.622;2022-10-04T07:41:11;10.30;99.90
9658;DHT22;4867;48.112;11.622;2022-10-04T07:44:03;10.30;99.90
9658;DHT22;4867;48.112;11.622;2022-10-04T07:46:45;10.40;99.90
9658;DHT22;4867;48.112;11.622;2022-10-04T07:49:19;10.60;99.90
9658;DHT22;4867;48.112;11.622;2022-10-04T07:54:36;10.90;99.90
9658;DHT22;4867;48.112;11.622;2022-10-04T07:57:51;10.90;99.90
9658;DHT22;4867;48.112;11.622;2022-10-04T08:00:27;11.10;99.90
9658;DHT22;4867;48.112;11.622;2022-10-04T08:03:14;11.20;99.90
9658;DHT22;4867;48.112;11.622;2022-10-04T08:08:51;11.40;99.90
9658;DHT22;4867;48.112;11.622;2022-10-04T08:11:46;11.40;99.90
9658;DHT22;4867;48.112;11.622;2022-10-04T08:23:26;11.60;99.90
9658;DHT22;4867;48.112;11.622;2022-10-04T08:32:12;11.80;99.90
9658;DHT22;4867;48.112;11.622;2022-10-04T08:38:00;12.00;99.90
9658;DHT22;4867;48.112;11.622;2022-10-04T08:41:13;12.10;99.90
9658;DHT22;4867;48.112;11.622;2022-10-04T08:43:56;12.30;99.90
9658;DHT22;4867;48.112;11.622;2022-10-04T08:49:28;12.50;99.90
9658;DHT22;4867;48.112;11.622;2022-10-04T08:52:28;12.70;99.90
9658;DHT22;4867;48.112;11.622;2022-10-04T08:58:14;12.80;99.90
9658;DHT22;4867;48.112;11.622;2022-10-04T09:12:08;13.30;99.90
9658;DHT22;4867;48.112;11.622;2022-10-04T09:15:12;13.40;99.90
9658;DHT22;4867;48.112;11.622;2022-10-04T09:18:01;13.50;99.90
9658;DHT22;4867;48.112;11.622;2022-10-04T09:23:51;13.60;99.90
9658;DHT22;4867;48.112;11.622;2022-10-04T09:26:22;13.70;99.90
9658;DHT22;4867;48.112;11.622;2022-10-04T09:29:25;13.80;99.90
9658;DHT22;4867;48.112;11.622;2022-10-04T09:32:26;13.90;99.90
9658;DHT22;4867;48.112;11.622;2022-10-04T09:40:35;14.20;99.90
9658;DHT22;4867;48.112;11.622;2022-10-04T09:49:16;14.50;99.90
9658;DHT22;4867;48.112;11.622;2022-10-04T10:00:20;14.90;99.90
9658;DHT22;4867;48.112;11.622;2022-10-04T10:06:03;15.20;99.90
9658;DHT22;4867;48.112;11.622;2022-10-04T10:12:16;15.40;99.90
9658;DHT22;4867;48.112;11.622;2022-10-04T10:17:56;15.60;99.90
9658;DHT22;4867;48.112;11.622;2022-10-04T10:26:12;15.80;99.90
9658;DHT22;4867;48.112;11.622;2022-10-04T10:34:58;15.70;99.90
9658;DHT22;4867;48.112;11.622;2022-10-04T10:40:54;15.80;99.90
9658;DHT22;4867;48.112;11.622;2022-10-04T10:44:24;15.70;99.90
9658;DHT22;4867;48.112;11.622;2022-10-04T10:46:41;15.80;99.90
9658;DHT22;4867;48.112;11.622;2022-10-04T10:57:45;15.80;99.90
9658;DHT22;4867;48.112;11.622;2022-10-04T11:03:03;15.90;99.90
9658;DHT22;4867;48.112;11.622;2022-10-04T11:06:10;16.00;99.90
9658;DHT22;4867;48.112;11.622;2022-10-04T11:08:49;16.20;99.90
9658;DHT22;4867;48.112;11.622;2022-10-04T11:23:33;16.50;99.90
9658;DHT22;4867;48.112;11.622;2022-10-04T11:41:28;16.60;99.90
9658;DHT22;4867;48.112;11.622;2022-10-04T11:55:44;16.90;99.90
9658;DHT22;4867;48.112;11.622;2022-10-04T11:58:30;16.90;99.90
9658;DHT22;4867;48.112;11.622;2022-10-04T12:12:31;16.90;99.90
9658;DHT22;4867;48.112;11.622;2022-10-04T12:26:32;17.10;99.90
9658;DHT22;4867;48.112;11.622;2022-10-04T12:31:57;17.30;99.90
9658;DHT22;4867;48.112;11.622;2022-10-04T12:34:34;17.40;99.90
9658;DHT22;4867;48.112;11.622;2022-10-04T12:37:15;17.40;99.90
9658;DHT22;4867;48.112;11.622;2022-10-04T12:40:02;17.50;99.90
9658;DHT22;4867;48.112;11.622;2022-10-04T12:42:56;17.40;99.90
9658;DHT22;4867;48.112;11.622;2022-10-04T12:48:55;17.30;99.90
9658;DHT22;4867;48.112;11.622;2022-10-04T13:00:21;16.80;99.90
9658;DHT22;4867;48.112;11.622;2022-10-04T13:03:17;16.90;99.90
9658;DHT22;4867;48.112;11.622;2022-10-04T13:06:03;16.80;99.90
9658;DHT22;4867;48.112;11.622;2022-10-04T13:17:42;16.70;99.90
9658;DHT22;4867;48.112;11.622;2022-10-04T13:23:24;16.70;99.90
9658;DHT22;4867;48.112;11.622;2022-10-04T13:26:04;16.70;99.90
9658;DHT22;4867;48.112;11.622;2022-10-04T13:28:51;16.70;99.90
9658;DHT22;4867;48.112;11.622;2022-10-04T13:42:29;16.70;99.90
9658;DHT22;4867;48.112;11.622;2022-10-04T13:51:09;16.80;99.90
9658;DHT22;4867;48.112;11.622;2022-10-04T13:53:58;16.90;99.90
9658;DHT22;4867;48.112;11.622;2022-10-04T13:57:20;17.00;99.90
9658;DHT22;4867;48.112;11.622;2022-10-04T13:59:59;17.20;99.90
9658;DHT22;4867;48.112;11.622;2022-10-04T14:02:47;17.20;99.90
9658;DHT22;4867;48.112;11.622;2022-10-04T14:05:55;17.20;99.90
9658;DHT22;4867;48.112;11.622;2022-10-04T14:08:58;17.30;99.90
9658;DHT22;4867;48.112;11.622;2022-10-04T14:36:55;17.40;99.90
9658;DHT22;4867;48.112;11.622;2022-10-04T14:42:40;17.50;99.90
9658;DHT22;4867;48.112;11.622;2022-10-04T14:50:43;17.50;99.90
9658;DHT22;4867;48.112;11.622;2022-10-04T14:53:20;17.50;99.90
9658;DHT22;4867;48.112;11.622;2022-10-04T15:07:44;17.40;99.90
9658;DHT22;4867;48.112;11.622;2022-10-04T15:10:18;17.30;99.90
9658;DHT22;4867;48.112;11.622;2022-10-04T15:16:17;17.20;99.90
9658;DHT22;4867;48.112;11.622;2022-10-04T15:21:32;17.10;99.90
9658;DHT22;4867;48.112;11.622;2022-10-04T15:32:48;17.20;99.90
9658;DHT22;4867;48.112;11.622;2022-10-04T15:41:15;16.80;99.90
9658;DHT22;4867;48.112;11.622;2022-10-04T15:46:52;16.80;99.90
9658;DHT22;4867;48.112;11.622;2022-10-04T15:55:34;16.60;99.90
9658;DHT22;4867;48.112;11.622;2022-10-04T16:07:07;16.30;99.90
9658;DHT22;4867;48.112;11.622;2022-10-04T16:15:38;16.10;99.90
9658;DHT22;4867;48.112;11.622;2022-10-04T16:18:36;16.00;99.90
9658;DHT22;4867;48.112;11.622;2022-10-04T16:30:11;15.90;99.90
9658;DHT22;4867;48.112;11.622;2022-10-04T16:34:50;15.50;99.90
9658;DHT22;4867;48.112;11.622;2022-10-04T16:46:08;15.10;99.90
9658;DHT22;4867;48.112;11.622;2022-10-04T16:48:59;14.90;99.90
9658;DHT22;4867;48.112;11.622;2022-10-04T16:54:54;14.80;99.90
9658;DHT22;4867;48.112;11.622;2022-10-04T16:57:24;14.60;99.90
9658;DHT22;4867;48.112;11.622;2022-10-04T16:59:58;14.60;99.90
9658;DHT22;4867;48.112;11.622;2022-10-04T17:02:57;14.40;99.90
9658;DHT22;4867;48.112;11.622;2022-10-04T17:08:58;14.20;99.90
9658;DHT22;4867;48.112;11.622;2022-10-04T17:11:43;14.00;99.90
9658;DHT22;4867;48.112;11.622;2022-10-04T17:14:43;13.90;99.90
9658;DHT22;4867;48.112;11.622;2022-10-04T17:17:22;13.80;99.90
9658;DHT22;4867;48.112;11.622;2022-10-04T17:19:58;13.80;99.90
9658;DHT22;4867;48.112;11.622;2022-10-04T17:25:49;13.60;99.90
9658;DHT22;4867;48.112;11.622;2022-10-04T17:28:28;13.50;99.90
9658;DHT22;4867;48.112;11.622;2022-10-04T17:36:33;13.30;99.90
9658;DHT22;4867;48.112;11.622;2022-10-04T17:41:43;13.20;99.90
9658;DHT22;4867;48.112;11.622;2022-10-04T17:46:58;13.10;99.90
9658;DHT22;4867;48.112;11.622;2022-10-04T17:49:45;13.00;99.90
9658;DHT22;4867;48.112;11.622;2022-10-04T17:52:45;13.00;99.90
9658;DHT22;4867;48.112;11.622;2022-10-04T17:55:51;12.90;99.90
9658;DHT22;4867;48.112;11.622;2022-10-04T17:58:27;12.90;99.90
9658;DHT22;4867;48.112;11.622;2022-10-04T18:01:02;12.70;99.90
9658;DHT22;4867;48.112;11.622;2022-10-04T18:03:43;12.80;99.90
9658;DHT22;4867;48.112;11.622;2022-10-04T18:11:58;12.50;99.90
9658;DHT22;4867;48.112;11.622;2022-10-04T18:17:06;12.30;99.90
9658;DHT22;4867;48.112;11.622;2022-10-04T18:24:36;12.10;99.90
9658;DHT22;4867;48.112;11.622;2022-10-04T18:27:23;12.10;99.90
9658;DHT22;4867;48.112;11.622;2022-10-04T18:30:13;12.00;99.90
9658;DHT22;4867;48.112;11.622;2022-10-04T18:32:47;11.90;99.90
9658;DHT22;4867;48.112;11.622;2022-10-04T18:35:32;11.80;99.90
9658;DHT22;4867;48.112;11.622;2022-10-04T18:38:26;11.80;99.90
9658;DHT22;4867;48.112;11.622;2022-10-04T18:40:57;11.70;99.90
9658;DHT22;4867;48.112;11.622;2022-10-04T18:43:50;11.70;99.90
9658;DHT22;4867;48.112;11.622;2022-10-04T18:46:19;11.60;99.90
9658;DHT22;4867;48.112;11.622;2022-10-04T18:56:20;11.40;99.90
9658;DHT22;4867;48.112;11.622;2022-10-04T18:59:04;11.40;99.90
9658;DHT22;4867;48.112;11.622;2022-10-04T19:02:04;11.40;99.90
9658;DHT22;4867;48.112;11.622;2022-10-04T19:07:12;11.20;99.90
9658;DHT22;4867;48.112;11.622;2022-10-04T19:20:57;10.90;99.90
9658;DHT22;4867;48.112;11.622;2022-10-04T19:25:58;10.90;99.90
9658;DHT22;4867;48.112;11.622;2022-10-04T19:34:35;10.80;99.90
9658;DHT22;4867;48.112;11.622;2022-10-04T19:37:29;10.70;99.90
9658;DHT22;4867;48.112;11.622;2022-10-04T19:45:21;10.60;99.90
9658;DHT22;4867;48.112;11.622;2022-10-04T19:47:54;10.50;99.90
9658;DHT22;4867;48.112;11.622;2022-10-04T19:50:31;10.50;99.90
9658;DHT22;4867;48.112;11.622;2022-10-04T19:53:16;10.50;99.90
9658;DHT22;4867;48.112;11.622;2022-10-04T19:55:55;10.50;99.90
9658;DHT22;4867;48.112;11.622;2022-10-04T19:58:40;10.40;99.90
9658;DHT22;4867;48.112;11.622;2022-10-04T20:01:13;10.30;99.90
9658;DHT22;4867;48.112;11.622;2022-10-04T20:03:42;10.10;99.90
9658;DHT22;4867;48.112;11.622;2022-10-04T20:06:19;10.10;99.90
9658;DHT22;4867;48.112;11.622;2022-10-04T20:08:55;10.10;99.90
9658;DHT22;4867;48.112;11.622;2022-10-04T20:11:46;10.00;99.90
9658;DHT22;4867;48.112;11.622;2022-10-04T20:22:25;10.00;99.90
9658;DHT22;4867;48.112;11.622;2022-10-04T20:24:53;10.00;99.90
9658;DHT22;4867;48.112;11.622;2022-10-04T20:29:59;9.90;99.90
9658;DHT22;4867;48.112;11.622;2022-10-04T20:35:02;9.90;99.90
9658;DHT22;4867;48.112;11.622;2022-10-04T20:43:23;9.90;99.90
9658;DHT22;4867;48.112;11.622;2022-10-04T20:45:52;9.70;99.90
9658;DHT22;4867;48.112;11.622;2022-10-04T20:48:23;9.80;99.90
9658;DHT22;4867;48.112;11.622;2022-10-04T20:50:51;9.70;99.90
9658;DHT22;4867;48.112;11.622;2022-10-04T20:53:29;9.80;99.90
9658;DHT22;4867;48.112;11.622;2022-10-04T20:56:24;9.80;99.90
9658;DHT22;4867;48.112;11.622;2022-10-04T20:58:59;9.70;99.90
9658;DHT22;4867;48.112;11.622;2022-10-04T21:01:31;9.70;99.90
9658;DHT22;4867;48.112;11.622;2022-10-04T21:04:21;9.70;99.90
9658;DHT22;4867;48.112;11.622;2022-10-04T21:07:09;9.70;99.90
9658;DHT22;4867;48.112;11.622;2022-10-04T21:09:40;9.60;99.90
9658;DHT22;4867;48.112;11.622;2022-10-04T21:19:56;9.50;99.90
9658;DHT22;4867;48.112;11.622;2022-10-04T21:25:00;9.50;99.90
9658;DHT22;4867;48.112;11.622;2022-10-04T21:29:59;9.50;99.90
9658;DHT22;4867;48.112;11.622;2022-10-04T21:32:31;9.40;99.90
9658;DHT22;4867;48.112;11.622;2022-10-04T21:34:59;9.40;99.90
9658;DHT22;4867;48.112;11.622;2022-10-04T21:37:26;9.40;99.90
9658;DHT22;4867;48.112;11.622;2022-10-04T21:39:54;9.30;99.90
9658;DHT22;4867;48.112;11.622;2022-10-04T21:42:22;9.30;99.90
9658;DHT22;4867;48.112;11.622;2022-10-04T21:44:49;9.30;99.90
9658;DHT22;4867;48.112;11.622;2022-10-04T21:47:16;9.30;99.90
9658;DHT22;4867;48.112;11.622;2022-10-04T21:49:43;9.20;99.90
9658;DHT22;4867;48.112;11.622;2022-10-04T21:52:10;9.20;99.90
9658;DHT22;4867;48.112;11.622;2022-10-04T21:54:37;9.20;99.90
9658;DHT22;4867;48.112;11.622;2022-10-04T21:57:05;9.20;99.90
9658;DHT22;4867;48.112;11.622;2022-10-04T21:59:32;9.20;99.90
9658;DHT22;4867;48.112;11.622;2022-10-04T22:02:00;9.10;99.90
9658;DHT22;4867;48.112;11.622;2022-10-04T22:04:27;9.00;99.90
9658;DHT22;4867;48.112;11.622;2022-10-04T22:06:54;9.00;99.90
9658;DHT22;4867;48.112;11.622;2022-10-04T22:09:21;9.00;99.90
9658;DHT22;4867;48.112;11.622;2022-10-04T22:11:48;8.90;99.90
9658;DHT22;4867;48.112;11.622;2022-10-04T22:14:16;8.90;99.90
9658;DHT22;4867;48.112;11.622;2022-10-04T22:16:43;8.90;99.90
9658;DHT22;4867;48.112;11.622;2022-10-04T22:19:11;8.80;99.90
9658;DHT22;4867;48.112;11.622;2022-10-04T22:21:38;8.80;99.90
9658;DHT22;4867;48.112;11.622;2022-10-04T22:24:15;8.70;99.90
9658;DHT22;4867;48.112;11.622;2022-10-04T22:26:42;8.70;99.90
9658;DHT22;4867;48.112;11.622;2022-10-04T22:29:15;8.70;99.90
9658;DHT22;4867;48.112;11.622;2022-10-04T22:31:50;8.70;99.90
9658;DHT22;4867;48.112;11.622;2022-10-04T22:34:20;8.70;99.90
9658;DHT22;4867;48.112;11.622;2022-10-04T22:36:48;8.70;99.90
9658;DHT22;4867;48.112;11.622;2022-10-04T22:39:18;8.70;99.90
9658;DHT22;4867;48.112;11.622;2022-10-04T22:41:57;8.70;99.90
9658;DHT22;4867;48.112;11.622;2022-10-04T22:44:34;8.70;99.90
9658;DHT22;4867;48.112;11.622;2022-10-04T22:47:05;8.60;99.90
9658;DHT22;4867;48.112;11.622;2022-10-04T22:49:37;8.60;99.90
9658;DHT22;4867;48.112;11.622;2022-10-04T22:52:17;8.60;99.90
9658;DHT22;4867;48.112;11.622;2022-10-04T22:54:46;8.60;99.90
9658;DHT22;4867;48.112;11.622;2022-10-04T22:57:16;8.50;99.90
9658;DHT22;4867;48.112;11.622;2022-10-04T22:59:48;8.50;99.90
9658;DHT22;4867;48.112;11.622;2022-10-04T23:02:28;8.50;99.90
9658;DHT22;4867;48.112;11.622;2022-10-04T23:04:59;8.50;99.90
9658;DHT22;4867;48.112;11.622;2022-10-04T23:07:27;8.50;99.90
9658;DHT22;4867;48.112;11.622;2022-10-04T23:09:54;8.50;99.90
9658;DHT22;4867;48.112;11.622;2022-10-04T23:12:21;8.50;99.90
9658;DHT22;4867;48.112;11.622;2022-10-04T23:14:48;8.50;99.90
9658;DHT22;4867;48.112;11.622;2022-10-04T23:17:28;8.40;99.90
9658;DHT22;4867;48.112;11.622;2022-10-04T23:20:00;8.40;99.90
9658;DHT22;4867;48.112;11.622;2022-10-04T23:22:29;8.40;99.90
9658;DHT22;4867;48.112;11.622;2022-10-04T23:24:57;8.50;99.90
9658;DHT22;4867;48.112;11.622;2022-10-04T23:27:24;8.30;99.90
9658;DHT22;4867;48.112;11.622;2022-10-04T23:30:00;8.30;99.90
9658;DHT22;4867;48.112;11.622;2022-10-04T23:32:30;8.30;99.90
9658;DHT22;4867;48.112;11.622;2022-10-04T23:34:57;8.30;99.90
9658;DHT22;4867;48.112;11.622;2022-10-04T23:37:29;8.20;99.90
9658;DHT22;4867;48.112;11.622;2022-10-04T23:39:57;8.20;99.90
9658;DHT22;4867;48.112;11.622;2022-10-04T23:42:26;8.20;99.90
9658;DHT22;4867;48.112;11.622;2022-10-04T23:44:59;8.20;99.90
9658;DHT22;4867;48.112;11.622;2022-10-04T23:47:35;8.10;99.90
9658;DHT22;4867;48.112;11.622;2022-10-04T23:50:29;8.10;99.90
9658;DHT22;4867;48.112;11.622;2022-10-04T23:53:00;8.10;99.90
9658;DHT22;4867;48.112;11.622;2022-10-04T23:55:38;8.00;99.90
9658;DHT22;4867;48.112;11.622;2022-10-04T23:58:16;8.00;99.90
